Time;durP1;ratioP1;P1;durP2;ratioP2;P2;SDS_P1;SDS_P2;PMS_P1;PMS_P2;Temp;Humidity;BMP_temperature;BMP_pressure;BME280_temperature;BME280_humidity;BME280_pressure;Samples;Min_cycle;Max_cycle;Signal;HPM_P1;HPM_P2
2023/02/12 00:01:08;;;;;;;21.75;10.05;;;;;;;4.32;100.00;100445.44;4194125;28;20469;-75
2023/02/12 00:03:09;;;;;;;18.55;10.25;;;;;;;4.31;100.00;100446.53;4192177;28;20043;-76
2023/02/12 00:05:09;;;;;;;25.13;11.73;;;;;;;4.33;100.00;100445.13;4191897;28;20746;-75
2023/02/12 00:07:10;;;;;;;21.77;9.60;;;;;;;4.27;100.00;100445.47;4195677;28;20047;-75
2023/02/12 00:09:10;;;;;;;24.33;9.63;;;;;;;4.25;100.00;100450.41;4191866;28;20045;-75
2023/02/12 00:11:16;;;;;;;18.38;10.00;;;;;;;4.20;100.00;100443.88;4190854;28;20040;-75
2023/02/12 00:13:16;;;;;;;20.48;10.07;;;;;;;4.35;100.00;100450.31;4194677;28;20335;-76
2023/02/12 00:15:16;;;;;;;20.30;9.30;;;;;;;4.30;100.00;100444.88;4194053;28;20570;-75
2023/02/12 00:17:17;;;;;;;21.85;9.25;;;;;;;4.28;100.00;100450.66;4192879;28;20118;-75
2023/02/12 00:19:17;;;;;;;18.15;9.63;;;;;;;4.24;100.00;100446.88;4194961;28;20045;-75
2023/02/12 00:21:17;;;;;;;20.98;9.75;;;;;;;4.23;100.00;100439.75;4193052;28;20044;-75
2023/02/12 00:23:18;;;;;;;22.95;10.25;;;;;;;4.19;100.00;100452.38;4191994;28;20123;-75
2023/02/12 00:25:18;;;;;;;22.15;10.30;;;;;;;4.23;100.00;100447.97;4190593;28;20044;-76
2023/02/12 00:27:18;;;;;;;19.45;9.38;;;;;;;4.23;100.00;100451.53;4190922;28;20073;-76
2023/02/12 00:29:19;;;;;;;22.42;9.77;;;;;;;4.20;100.00;100446.59;4189273;28;20661;-75
2023/02/12 00:31:24;;;;;;;19.70;9.43;;;;;;;4.15;100.00;100443.94;4197915;28;20049;-75
2023/02/12 00:33:24;;;;;;;17.85;9.68;;;;;;;4.22;100.00;100449.09;4190886;28;20067;-75
2023/02/12 00:35:25;;;;;;;18.83;9.13;;;;;;;4.20;100.00;100459.50;4189927;28;20072;-75
2023/02/12 00:37:25;;;;;;;20.15;9.07;;;;;;;4.12;100.00;100460.09;4189627;28;20131;-75
2023/02/12 00:39:26;;;;;;;17.77;8.88;;;;;;;4.19;100.00;100455.94;4190766;28;20446;-75
2023/02/12 00:41:26;;;;;;;23.67;10.98;;;;;;;4.09;100.00;100447.00;4190381;28;20048;-75
2023/02/12 00:43:26;;;;;;;21.98;9.77;;;;;;;4.13;100.00;100453.53;4189837;28;20071;-75
2023/02/12 00:45:27;;;;;;;20.20;9.93;;;;;;;4.14;100.00;100450.50;4190154;28;20045;-75
2023/02/12 00:47:27;;;;;;;18.65;9.75;;;;;;;4.11;100.00;100442.03;4192619;28;20053;-75
2023/02/12 00:49:32;;;;;;;21.00;9.18;;;;;;;4.05;100.00;100451.41;4194407;28;20379;-76
2023/02/12 00:51:33;;;;;;;23.02;10.13;;;;;;;4.04;100.00;100438.81;4197231;28;20032;-75
2023/02/12 00:53:33;;;;;;;20.88;9.88;;;;;;;4.03;100.00;100453.63;4197641;28;20481;-75
2023/02/12 00:55:34;;;;;;;20.63;10.77;;;;;;;4.04;100.00;100449.75;4192850;28;20045;-75
2023/02/12 00:57:34;;;;;;;21.23;10.15;;;;;;;4.07;100.00;100451.94;4196420;28;20036;-75
2023/02/12 00:59:36;;;;;;;19.45;9.75;;;;;;;4.07;100.00;100455.50;4192960;28;20499;-75
2023/02/12 01:01:37;;;;;;;22.58;9.57;;;;;;;4.16;100.00;100450.22;4193911;28;20040;-76
2023/02/12 01:03:37;;;;;;;19.80;9.75;;;;;;;4.13;100.00;100453.53;4192698;28;20098;-75
2023/02/12 01:05:37;;;;;;;17.35;8.52;;;;;;;4.13;100.00;100456.25;4192635;28;20072;-75
2023/02/12 01:07:39;;;;;;;19.52;10.27;;;;;;;4.19;100.00;100457.84;4189849;28;20029;-75
2023/02/12 01:09:39;;;;;;;17.75;9.60;;;;;;;4.21;100.00;100453.72;4193986;28;20036;-76
2023/02/12 01:11:40;;;;;;;18.60;9.63;;;;;;;4.21;100.00;100461.13;4192900;28;20110;-75
2023/02/12 01:13:40;;;;;;;21.88;9.52;;;;;;;4.18;100.00;100465.25;4191628;28;20361;-76
2023/02/12 01:15:41;;;;;;;21.35;10.43;;;;;;;4.13;100.00;100461.75;4193548;28;20036;-75
2023/02/12 01:17:42;;;;;;;19.20;9.23;;;;;;;4.15;100.00;100460.38;4195532;28;20028;-75
2023/02/12 01:19:42;;;;;;;21.38;10.00;;;;;;;4.14;100.00;100453.25;4197936;28;20040;-76
2023/02/12 01:21:43;;;;;;;23.27;9.90;;;;;;;4.15;100.00;100454.06;4194167;28;20276;-76
2023/02/12 01:23:46;;;;;;;21.17;9.75;;;;;;;4.23;100.00;100459.75;4192278;28;20048;-75
2023/02/12 01:25:47;;;;;;;18.33;9.52;;;;;;;4.23;100.00;100450.72;4192755;28;20415;-75
2023/02/12 01:27:47;;;;;;;19.25;9.43;;;;;;;4.25;100.00;100456.72;4192585;28;20052;-75
2023/02/12 01:29:47;;;;;;;19.13;9.55;;;;;;;4.22;100.00;100454.56;4192835;28;20044;-75
2023/02/12 01:31:48;;;;;;;19.65;10.18;;;;;;;4.28;100.00;100453.38;4194165;28;20053;-75
2023/02/12 01:33:52;;;;;;;17.90;9.20;;;;;;;4.26;100.00;100446.56;4191776;28;20082;-75
2023/02/12 01:35:52;;;;;;;20.50;9.57;;;;;;;4.26;100.00;100449.31;4192580;28;20053;-75
2023/02/12 01:37:53;;;;;;;19.63;9.02;;;;;;;4.23;100.00;100434.28;4192214;28;20052;-75
2023/02/12 01:39:53;;;;;;;18.15;9.23;;;;;;;4.26;100.00;100452.88;4193055;28;20071;-75
2023/02/12 01:41:53;;;;;;;17.10;9.10;;;;;;;4.33;100.00;100439.66;4192436;28;20059;-75
2023/02/12 01:44:21;;;;;;;18.95;8.55;;;;;;;4.34;100.00;100449.50;4196842;28;20040;-75
2023/02/12 01:46:22;;;;;;;17.67;8.98;;;;;;;4.30;100.00;100451.16;4190624;28;20051;-75
2023/02/12 01:48:26;;;;;;;17.77;8.68;;;;;;;4.30;100.00;100450.34;4193964;28;20123;-76
2023/02/12 01:50:26;;;;;;;15.95;9.73;;;;;;;4.28;100.00;100447.09;4191260;28;20107;-75
2023/02/12 01:52:35;;;;;;;17.35;9.13;;;;;;;4.25;100.00;100447.69;4191795;28;20099;-76
2023/02/12 01:54:36;;;;;;;17.15;8.48;;;;;;;4.24;100.00;100455.09;4192358;28;20036;-76
2023/02/12 01:56:37;;;;;;;15.57;8.50;;;;;;;4.27;100.00;100446.28;4191679;28;20029;-75
2023/02/12 01:58:41;;;;;;;19.08;9.23;;;;;;;4.25;100.00;100459.44;4191977;28;20382;-75
2023/02/12 02:00:41;;;;;;;18.00;9.25;;;;;;;4.23;100.00;100454.28;4192496;28;20358;-75
2023/02/12 02:02:44;;;;;;;16.95;9.10;;;;;;;4.26;100.00;100449.31;4191423;28;20039;-75
2023/02/12 02:04:54;;;;;;;16.92;9.57;;;;;;;4.28;100.00;100450.66;4191915;28;20051;-76
2023/02/12 02:06:59;;;;;;;17.98;8.98;;;;;;;4.24;100.00;100457.81;4194297;28;20063;-75
2023/02/12 02:09:00;;;;;;;17.60;10.07;;;;;;;4.28;100.00;100453.38;4192071;28;20048;-76
2023/02/12 02:14:31;;;;;;;17.23;9.23;;;;;;;4.27;100.00;100445.47;4191708;28;20045;-75
2023/02/12 02:15:46;;;;;;;20.05;9.15;;;;;;;4.25;100.00;100451.22;4191857;28;20105;-75
2023/02/12 02:17:52;;;;;;;15.95;9.48;;;;;;;4.29;100.00;100454.19;4191760;28;20036;-75
2023/02/12 02:20:41;;;;;;;19.23;9.35;;;;;;;4.34;100.00;100452.25;4193353;28;20055;-75
2023/02/12 02:22:59;;;;;;;17.58;8.90;;;;;;;4.23;100.00;100446.06;4189923;28;20097;-75
2023/02/12 02:25:22;;;;;;;17.90;9.15;;;;;;;4.23;100.00;100445.22;4191902;28;20120;-75
2023/02/12 02:28:01;;;;;;;18.98;9.63;;;;;;;4.25;100.00;100448.50;4191344;28;20067;-76
2023/02/12 02:30:23;;;;;;;18.38;9.73;;;;;;;4.28;100.00;100449.84;4179651;28;20056;-76
2023/02/12 02:32:28;;;;;;;21.77;9.95;;;;;;;4.32;100.00;100443.50;4191441;28;20063;-75
2023/02/12 02:35:07;;;;;;;18.20;9.40;;;;;;;4.31;100.00;100441.06;4190490;28;20052;-76
2023/02/12 02:37:28;;;;;;;19.85;9.45;;;;;;;4.26;100.00;100447.38;4187886;28;20043;-75
2023/02/12 02:39:48;;;;;;;20.92;10.85;;;;;;;4.25;100.00;100443.00;4191806;28;20053;-75
2023/02/12 02:42:23;;;;;;;18.83;8.98;;;;;;;4.23;100.00;100434.28;4193023;28;20398;-75
2023/02/12 02:44:39;;;;;;;20.08;10.00;;;;;;;4.21;100.00;100430.97;4184940;28;20048;-75
2023/02/12 02:46:48;;;;;;;17.77;9.27;;;;;;;4.26;100.00;100433.69;4190976;28;20233;-75
2023/02/12 02:48:58;;;;;;;20.33;10.30;;;;;;;4.21;100.00;100433.72;4191307;28;20048;-75
2023/02/12 02:51:08;;;;;;;20.50;10.13;;;;;;;4.26;100.00;100430.94;4191279;28;20040;-75
2023/02/12 02:53:40;;;;;;;17.63;9.45;;;;;;;4.21;100.00;100431.78;4191064;28;20136;-76
2023/02/12 02:55:50;;;;;;;23.08;11.32;;;;;;;4.22;100.00;100432.66;4187078;28;20186;-76
2023/02/12 02:58:04;;;;;;;21.75;9.82;;;;;;;4.32;100.00;100432.53;4191238;28;20373;-76
2023/02/12 03:00:17;;;;;;;19.35;9.30;;;;;;;4.35;100.00;100434.69;4195546;28;20044;-75
2023/02/12 03:02:23;;;;;;;18.58;9.38;;;;;;;4.35;100.00;100422.91;4189665;28;20044;-75
2023/02/12 03:04:31;;;;;;;22.67;10.82;;;;;;;4.34;100.00;100426.75;4191279;28;20044;-75
2023/02/12 03:06:56;;;;;;;19.00;10.15;;;;;;;4.35;100.00;100422.91;4191518;28;20045;-75
2023/02/12 03:09:01;;;;;;;21.05;10.50;;;;;;;4.31;100.00;100430.09;4188959;28;20033;-76
2023/02/12 03:11:13;;;;;;;18.45;10.20;;;;;;;4.30;100.00;100433.91;4196499;28;20039;-75
2023/02/12 03:13:24;;;;;;;19.05;9.82;;;;;;;4.36;100.00;100436.31;4190601;28;20047;-76
2023/02/12 03:15:33;;;;;;;19.35;10.82;;;;;;;4.33;100.00;100436.09;4191832;28;20063;-75
2023/02/12 03:17:38;;;;;;;19.17;9.40;;;;;;;4.31;100.00;100438.31;4190561;28;20496;-76
2023/02/12 03:19:45;;;;;;;20.08;10.40;;;;;;;4.35;100.00;100434.69;4191218;28;20040;-76
2023/02/12 03:21:56;;;;;;;18.42;9.38;;;;;;;4.34;100.00;100434.97;4190966;28;20207;-75
2023/02/12 03:24:34;;;;;;;21.45;10.32;;;;;;;4.35;100.00;100440.16;4190355;28;20101;-75
2023/02/12 03:26:54;;;;;;;19.92;10.55;;;;;;;4.34;100.00;100438.53;4164467;28;20135;-75
2023/02/12 03:28:55;;;;;;;17.95;9.90;;;;;;;4.39;100.00;100437.69;4190404;28;20044;-75
2023/02/12 03:31:05;;;;;;;20.70;10.88;;;;;;;4.32;100.00;100429.78;4193814;28;20176;-75
2023/02/12 03:33:37;;;;;;;17.73;9.63;;;;;;;4.38;100.00;100438.75;4190901;28;20168;-75
2023/02/12 03:35:46;;;;;;;18.80;10.37;;;;;;;4.40;100.00;100442.88;4187103;28;20125;-75
2023/02/12 03:38:20;;;;;;;18.75;9.93;;;;;;;4.42;100.00;100435.16;4193019;28;20036;-75
2023/02/12 03:40:28;;;;;;;17.60;9.98;;;;;;;4.43;100.00;100436.00;4183942;28;20052;-75
2023/02/12 03:42:34;;;;;;;18.75;9.80;;;;;;;4.53;100.00;100441.34;4190761;28;20101;-75
2023/02/12 03:44:54;;;;;;;22.23;11.18;;;;;;;4.44;100.00;100437.63;4190966;28;20037;-76
2023/02/12 03:47:21;;;;;;;19.13;10.43;;;;;;;4.47;100.00;100442.53;4190346;28;20051;-75
2023/02/12 03:49:38;;;;;;;19.00;10.27;;;;;;;4.49;100.00;100440.31;4185708;28;20157;-75
2023/02/12 03:51:40;;;;;;;15.45;9.63;;;;;;;4.48;100.00;100435.94;4190217;28;20048;-75
2023/02/12 03:53:42;;;;;;;20.27;10.43;;;;;;;4.45;100.00;100444.72;4190072;28;20248;-76
2023/02/12 03:55:49;;;;;;;17.48;10.07;;;;;;;4.49;100.00;100459.50;4190763;28;20124;-75
2023/02/12 03:57:57;;;;;;;17.25;9.82;;;;;;;4.48;100.00;100455.13;4190719;28;20044;-75
2023/02/12 04:00:03;;;;;;;18.90;10.05;;;;;;;4.48;100.00;100450.47;4190163;28;21354;-76
2023/02/12 04:02:03;;;;;;;21.55;11.80;;;;;;;4.49;100.00;100454.84;4190812;28;20125;-75
2023/02/12 04:04:06;;;;;;;19.88;10.55;;;;;;;4.46;100.00;100447.19;4190394;28;20445;-75
2023/02/12 04:06:23;;;;;;;;;;;;;;;4.47;100.00;100461.72;4194311;28;20032;-75
2023/02/12 04:08:26;;;;;;;19.85;9.23;;;;;;;4.47;100.00;100459.81;4195490;28;19948;-75
2023/02/12 04:10:35;;;;;;;19.45;10.00;;;;;;;4.50;100.00;100456.47;4190749;28;20507;-75
2023/02/12 04:13:03;;;;;;;20.42;10.75;;;;;;;4.51;100.00;100460.84;4190142;28;20041;-75
2023/02/12 04:15:18;;;;;;;19.52;10.73;;;;;;;4.55;100.00;100461.09;4190021;28;20040;-75
2023/02/12 04:17:35;;;;;;;20.90;10.98;;;;;;;4.57;100.00;100463.53;4190568;28;20045;-75
2023/02/12 04:20:23;;;;;;;17.17;10.45;;;;;;;4.63;100.00;100476.88;4190484;28;20055;-75
2023/02/12 04:22:48;;;;;;;17.80;9.57;;;;;;;4.57;100.00;100475.31;4188958;28;20175;-76
2023/02/12 04:25:16;;;;;;;19.02;10.02;;;;;;;4.55;100.00;100474.81;4193950;28;20070;-76
2023/02/12 04:27:25;;;;;;;19.77;9.70;;;;;;;4.58;100.00;100489.84;4193764;28;20201;-75
2023/02/12 04:29:31;;;;;;;20.25;10.32;;;;;;;4.57;100.00;100486.28;4193341;28;20094;-75
2023/02/12 04:31:38;;;;;;;17.10;9.80;;;;;;;4.48;100.00;100475.13;4193596;28;20222;-76
2023/02/12 04:33:54;;;;;;;18.42;10.50;;;;;;;4.56;100.00;100481.09;4192750;28;20046;-76
2023/02/12 04:36:19;;;;;;;19.38;9.98;;;;;;;4.48;100.00;100486.09;4193336;28;20510;-74
2023/02/12 04:38:31;;;;;;;19.05;10.27;;;;;;;4.45;100.00;100489.41;4191321;28;20064;-76
2023/02/12 04:40:32;;;;;;;19.02;10.88;;;;;;;4.50;100.00;100486.63;4191703;28;20063;-76
2023/02/12 04:42:44;;;;;;;21.15;11.38;;;;;;;4.45;100.00;100480.38;4192478;28;20465;-76
2023/02/12 04:44:45;;;;;;;22.95;11.68;;;;;;;4.47;100.00;100486.41;4192782;28;20036;-75
2023/02/12 04:46:45;;;;;;;20.52;10.90;;;;;;;4.41;100.00;100487.53;4193404;28;20131;-75
2023/02/12 04:48:57;;;;;;;22.30;10.82;;;;;;;4.39;100.00;100487.84;4194470;28;20044;-76
2023/02/12 04:50:57;;;;;;;21.83;11.10;;;;;;;4.47;100.00;100486.41;4192968;28;20049;-75
2023/02/12 04:52:58;;;;;;;17.60;10.65;;;;;;;4.48;100.00;100488.03;4192880;28;20812;-75
2023/02/12 04:54:58;;;;;;;22.42;11.85;;;;;;;4.43;100.00;100493.53;4193320;28;20056;-76
2023/02/12 04:56:59;;;;;;;21.50;11.40;;;;;;;4.49;100.00;100493.22;4193042;28;20045;-75
2023/02/12 04:58:59;;;;;;;21.15;10.45;;;;;;;4.46;100.00;100491.03;4192921;28;20797;-76
2023/02/12 05:00:59;;;;;;;19.35;10.40;;;;;;;4.48;100.00;100485.28;4193267;28;20045;-75
2023/02/12 05:03:00;;;;;;;18.67;10.50;;;;;;;4.43;100.00;100488.06;4192270;28;20055;-75
2023/02/12 05:05:00;;;;;;;23.67;11.70;;;;;;;4.41;100.00;100493.84;4193031;28;20047;-76
2023/02/12 05:07:00;;;;;;;19.98;10.10;;;;;;;4.45;100.00;100502.28;4193457;28;20115;-75
2023/02/12 05:09:01;;;;;;;21.60;11.60;;;;;;;4.46;100.00;100493.78;4192828;28;20166;-75
2023/02/12 05:11:09;;;;;;;21.02;11.55;;;;;;;4.50;100.00;100505.81;4193931;28;20036;-76
2023/02/12 05:13:10;;;;;;;20.73;11.20;;;;;;;4.43;100.00;100497.09;4191433;28;20048;-75
2023/02/12 05:15:10;;;;;;;20.30;10.38;;;;;;;4.49;100.00;100498.69;4193275;28;20046;-76
2023/02/12 05:17:10;;;;;;;19.90;10.93;;;;;;;4.54;100.00;100497.81;4192717;28;20123;-76
2023/02/12 05:19:11;;;;;;;20.35;10.82;;;;;;;4.54;100.00;100497.81;4192965;28;20032;-75
2023/02/12 05:21:12;;;;;;;20.23;11.32;;;;;;;4.56;100.00;100506.59;4196288;28;20048;-75
2023/02/12 05:23:12;;;;;;;24.27;11.70;;;;;;;4.49;100.00;100506.09;4193899;28;20044;-75
2023/02/12 05:25:12;;;;;;;20.95;11.32;;;;;;;4.53;100.00;100514.56;4192953;28;20052;-75
2023/02/12 05:27:12;;;;;;;22.58;11.15;;;;;;;4.51;100.00;100509.38;4192465;28;20063;-76
2023/02/12 05:29:13;;;;;;;20.58;10.45;;;;;;;4.46;100.00;100507.47;4192380;28;20041;-75
2023/02/12 05:31:16;;;;;;;21.55;11.93;;;;;;;4.47;100.00;100506.41;4192358;28;20045;-76
2023/02/12 05:33:16;;;;;;;22.98;11.25;;;;;;;4.43;100.00;100519.03;4191795;28;20043;-76
2023/02/12 05:35:16;;;;;;;20.48;11.93;;;;;;;4.42;100.00;100511.91;4193928;28;20033;-76
2023/02/12 05:37:17;;;;;;;22.35;10.93;;;;;;;4.38;100.00;100510.84;4193349;28;20384;-76
2023/02/12 05:39:17;;;;;;;23.27;11.18;;;;;;;4.36;100.00;100504.84;4192461;28;20049;-76
2023/02/12 05:41:20;;;;;;;24.63;11.50;;;;;;;4.32;100.00;100509.28;4192564;28;20040;-76
2023/02/12 05:43:21;;;;;;;21.27;10.55;;;;;;;4.32;100.00;100511.19;4191861;28;20084;-76
2023/02/12 05:45:26;;;;;;;22.33;10.88;;;;;;;4.28;100.00;100507.38;4192094;28;20039;-76
2023/02/12 05:47:27;;;;;;;24.42;11.30;;;;;;;4.29;100.00;100498.03;4191907;28;20024;-75
2023/02/12 05:49:27;;;;;;;22.60;11.63;;;;;;;4.30;100.00;100497.75;4192376;28;20384;-75
2023/02/12 05:51:27;;;;;;;24.48;11.40;;;;;;;4.32;100.00;100509.28;4191832;28;20581;-76
2023/02/12 05:53:28;;;;;;;22.30;11.15;;;;;;;4.32;100.00;100509.28;4190914;28;20051;-75
2023/02/12 05:55:28;;;;;;;23.38;12.15;;;;;;;4.27;100.00;100513.97;4193881;28;20036;-76
2023/02/12 05:57:28;;;;;;;23.02;11.48;;;;;;;4.21;100.00;100505.78;4191767;28;20151;-76
2023/02/12 05:59:29;;;;;;;22.27;11.32;;;;;;;4.26;100.00;100526.03;4192151;28;20171;-76
2023/02/12 06:01:38;;;;;;;23.08;11.68;;;;;;;4.27;100.00;100522.19;4191992;28;20115;-76
2023/02/12 06:03:38;;;;;;;22.48;12.02;;;;;;;4.24;100.00;100515.38;4191200;28;20036;-76
2023/02/12 06:05:39;;;;;;;22.42;11.18;;;;;;;4.27;100.00;100527.66;4192021;28;20417;-76
2023/02/12 06:07:39;;;;;;;25.25;11.88;;;;;;;4.25;100.00;100522.47;4192030;28;20504;-75
2023/02/12 06:09:39;;;;;;;21.92;11.93;;;;;;;4.24;100.00;100515.38;4192001;28;20053;-76
2023/02/12 06:11:40;;;;;;;21.65;11.18;;;;;;;4.23;100.00;100522.78;4191865;28;20353;-76
2023/02/12 06:13:41;;;;;;;22.00;11.68;;;;;;;4.28;100.00;100521.91;4191650;28;20306;-76
2023/02/12 06:15:41;;;;;;;22.02;11.93;;;;;;;4.27;100.00;100519.44;4192700;28;20045;-76
2023/02/12 06:17:41;;;;;;;24.17;12.52;;;;;;;4.24;100.00;100518.09;4191709;28;20076;-76
2023/02/12 06:19:42;;;;;;;21.88;12.23;;;;;;;4.25;100.00;100527.97;4191120;28;20143;-76
2023/02/12 06:21:42;;;;;;;25.27;12.20;;;;;;;4.25;100.00;100530.69;4192186;28;20040;-76
2023/02/12 06:23:42;;;;;;;27.60;13.30;;;;;;;4.34;100.00;100531.72;4191347;28;20101;-75
2023/02/12 06:25:43;;;;;;;28.33;15.93;;;;;;;4.33;100.00;100535.56;4191011;28;20043;-76
2023/02/12 06:27:43;;;;;;;28.30;15.90;;;;;;;4.31;100.00;100536.97;4192115;28;20384;-76
2023/02/12 06:29:43;;;;;;;29.52;15.18;;;;;;;4.29;100.00;100542.72;4191250;28;20067;-75
2023/02/12 06:31:44;;;;;;;31.48;18.00;;;;;;;4.29;100.00;100533.66;4191691;28;20488;-76
2023/02/12 06:33:44;;;;;;;27.63;15.95;;;;;;;4.29;100.00;100537.22;4191134;28;20044;-75
2023/02/12 06:35:44;;;;;;;25.75;13.65;;;;;;;4.37;100.00;100536.63;4191415;28;20453;-76
2023/02/12 06:37:45;;;;;;;32.90;16.23;;;;;;;4.36;100.00;100539.66;4191663;28;20041;-76
2023/02/12 06:39:45;;;;;;;30.73;17.20;;;;;;;4.36;100.00;100543.19;4196045;28;20040;-75
2023/02/12 06:41:46;;;;;;;31.48;17.33;;;;;;;4.35;100.00;100547.06;4192605;28;20043;-76
2023/02/12 06:43:46;;;;;;;31.75;16.50;;;;;;;4.32;100.00;100544.09;4196086;28;20061;-75
2023/02/12 06:45:46;;;;;;;29.92;13.77;;;;;;;4.40;100.00;100548.94;4191339;28;20072;-76
2023/02/12 06:47:47;;;;;;;27.75;14.10;;;;;;;4.36;100.00;100554.16;4188439;28;20120;-76
2023/02/12 06:49:47;;;;;;;30.15;14.40;;;;;;;4.40;100.00;100543.47;4191205;28;20123;-75
2023/02/12 06:51:47;;;;;;;28.17;14.20;;;;;;;4.41;100.00;100543.16;4190349;28;20392;-76
2023/02/12 06:53:49;;;;;;;27.98;15.07;;;;;;;4.40;100.00;100543.47;4190334;28;20056;-76
2023/02/12 06:55:50;;;;;;;32.72;17.35;;;;;;;4.38;100.00;100542.91;4189902;28;20048;-75
2023/02/12 06:57:50;;;;;;;32.35;18.10;;;;;;;4.40;100.00;100557.97;4192491;28;20040;-76
2023/02/12 06:59:50;;;;;;;33.03;17.48;;;;;;;4.34;100.00;100547.34;4194022;28;20052;-76
2023/02/12 07:01:51;;;;;;;31.52;15.73;;;;;;;4.36;100.00;100556.09;4190208;28;20118;-76
2023/02/12 07:04:01;;;;;;;29.33;14.82;;;;;;;4.35;100.00;100558.00;4189162;28;20091;-76
2023/02/12 07:06:02;;;;;;;28.90;14.93;;;;;;;4.29;100.00;100559.16;4192956;28;20044;-75
2023/02/12 07:08:03;;;;;;;25.63;13.57;;;;;;;4.39;100.00;100563.75;4194420;28;20016;-75
2023/02/12 07:10:03;;;;;;;25.35;12.43;;;;;;;4.39;100.00;100570.06;4191489;28;20062;-75
2023/02/12 07:12:04;;;;;;;28.58;14.35;;;;;;;4.42;100.00;100565.91;4192473;28;20044;-76
2023/02/12 07:14:05;;;;;;;28.63;14.77;;;;;;;4.42;100.00;100572.22;4187742;28;20445;-75
2023/02/12 07:16:08;;;;;;;32.25;15.30;;;;;;;4.39;100.00;100575.53;4099374;28;20047;-75
2023/02/12 07:18:09;;;;;;;28.80;14.52;;;;;;;4.37;100.00;100574.97;4196574;28;20033;-76
2023/02/12 07:20:10;;;;;;;30.27;14.70;;;;;;;4.41;100.00;100565.09;4188527;28;20032;-75
2023/02/12 07:22:10;;;;;;;28.75;15.15;;;;;;;4.38;100.00;100570.31;4191479;28;20028;-76
2023/02/12 07:24:12;;;;;;;29.42;14.50;;;;;;;4.39;100.00;100571.97;4191276;28;20032;-75
2023/02/12 07:26:13;;;;;;;28.00;14.63;;;;;;;4.43;100.00;100575.78;4185650;28;21700;-75
2023/02/12 07:28:14;;;;;;;30.90;15.13;;;;;;;4.45;100.00;100579.84;4182649;28;20255;-75
2023/02/12 07:30:14;;;;;;;26.95;14.23;;;;;;;4.46;100.00;100580.66;4193275;28;20278;-76
2023/02/12 07:32:15;;;;;;;30.73;14.43;;;;;;;4.43;100.00;100581.25;4191448;28;20444;-75
2023/02/12 07:34:15;;;;;;;35.50;18.45;;;;;;;4.43;100.00;100578.50;4191593;28;20032;-75
2023/02/12 07:36:18;;;;;;;37.90;20.35;;;;;;;4.46;100.00;100586.16;4190460;28;20028;-76
2023/02/12 07:38:18;;;;;;;38.78;19.05;;;;;;;4.48;100.00;100590.25;4188506;28;20027;-75
2023/02/12 07:40:19;;;;;;;35.15;18.25;;;;;;;4.50;100.00;100600.94;4192399;28;20587;-75
2023/02/12 07:42:21;;;;;;;36.10;18.02;;;;;;;4.54;100.00;100595.69;4194363;28;20405;-76
2023/02/12 07:44:21;;;;;;;33.75;17.17;;;;;;;4.57;100.00;100593.22;4189414;28;20452;-76
2023/02/12 07:46:28;;;;;;;29.45;16.73;;;;;;;4.58;100.00;100592.09;4191453;28;20049;-76
2023/02/12 07:48:28;;;;;;;31.88;17.67;;;;;;;4.60;100.00;100591.81;4193174;28;20044;-75
2023/02/12 07:50:29;;;;;;;33.80;16.58;;;;;;;4.61;100.00;100598.94;4190151;28;20113;-76
2023/02/12 07:52:29;;;;;;;34.25;16.50;;;;;;;4.62;100.00;100593.16;4193866;28;20040;-76
2023/02/12 07:54:29;;;;;;;31.75;17.48;;;;;;;4.69;100.00;100604.59;4191253;28;20052;-76
2023/02/12 07:56:34;;;;;;;33.17;17.08;;;;;;;4.69;100.00;100603.78;4191010;28;20499;-76
2023/02/12 07:58:34;;;;;;;33.78;16.50;;;;;;;4.77;100.00;100608.66;4194629;28;20049;-76
2023/02/12 08:00:34;;;;;;;34.50;17.15;;;;;;;4.75;100.00;100605.41;4192628;28;20077;-75
2023/02/12 08:02:35;;;;;;;34.38;14.95;;;;;;;4.78;100.00;100610.28;4194450;28;20051;-76
2023/02/12 08:04:35;;;;;;;33.38;15.35;;;;;;;4.77;100.00;100604.00;4194711;28;20067;-75
2023/02/12 08:06:37;;;;;;;29.40;15.82;;;;;;;4.81;100.00;100609.75;4198089;28;20131;-76
2023/02/12 08:08:38;;;;;;;32.58;14.82;;;;;;;4.79;100.00;100606.44;4199303;28;20077;-75
2023/02/12 08:10:38;;;;;;;39.92;16.75;;;;;;;4.77;100.00;100614.16;4196049;28;20123;-76
2023/02/12 08:12:38;;;;;;;35.25;15.85;;;;;;;4.77;100.00;100612.22;4195897;28;20040;-75
2023/02/12 08:14:39;;;;;;;33.25;15.35;;;;;;;4.78;100.00;100611.09;4193770;28;20058;-76
2023/02/12 08:16:41;;;;;;;37.75;15.52;;;;;;;4.79;100.00;100617.41;4193305;28;20090;-76
2023/02/12 08:18:42;;;;;;;38.72;15.82;;;;;;;4.79;100.00;100622.91;4193917;28;20388;-75
2023/02/12 08:20:42;;;;;;;45.42;16.45;;;;;;;4.79;100.00;100625.63;4199976;28;20032;-76
2023/02/12 08:22:43;;;;;;;38.58;16.02;;;;;;;4.79;100.00;100620.16;4192465;28;20064;-75
2023/02/12 08:24:43;;;;;;;37.17;15.48;;;;;;;4.81;100.00;100615.22;4196157;28;20154;-76
2023/02/12 08:26:44;;;;;;;34.63;15.10;;;;;;;4.86;100.00;100622.56;4192452;28;20399;-75
2023/02/12 08:28:47;;;;;;;36.53;15.75;;;;;;;4.86;100.00;100620.66;4195966;28;20048;-75
2023/02/12 08:30:47;;;;;;;32.58;14.63;;;;;;;4.90;100.00;100621.72;4193383;28;20041;-76
2023/02/12 08:32:48;;;;;;;35.35;16.45;;;;;;;4.91;100.00;100623.34;4194439;28;20064;-75
2023/02/12 08:34:49;;;;;;;32.33;15.05;;;;;;;4.98;100.00;100621.09;4194576;28;20577;-76
2023/02/12 08:36:52;;;;;;;38.13;16.10;;;;;;;4.98;100.00;100623.84;4195978;28;20044;-76
2023/02/12 08:38:56;;;;;;;35.35;15.13;;;;;;;4.98;100.00;100631.25;4194355;28;20048;-76
2023/02/12 08:41:01;;;;;;;37.28;15.43;;;;;;;4.99;100.00;100624.66;4192429;28;20056;-76
2023/02/12 08:43:01;;;;;;;34.60;15.25;;;;;;;5.03;100.00;100626.50;4193681;28;20044;-76
2023/02/12 08:45:01;;;;;;;32.10;14.73;;;;;;;5.05;100.00;100621.59;4193145;28;20062;-75
2023/02/12 08:47:02;;;;;;;38.88;16.02;;;;;;;5.03;100.00;100623.78;4186873;28;20463;-76
2023/02/12 08:49:23;;;;;;;32.25;16.30;;;;;;;5.05;100.00;100627.06;4191280;28;20044;-76
2023/02/12 08:51:27;;;;;;;41.75;16.63;;;;;;;5.07;100.00;100629.50;4194962;28;20468;-76
2023/02/12 08:53:27;;;;;;;45.25;18.77;;;;;;;5.06;100.00;100627.88;4195521;28;20446;-76
2023/02/12 08:55:27;;;;;;;39.10;17.15;;;;;;;5.12;100.00;100636.88;4194984;28;20045;-76
2023/02/12 08:57:28;;;;;;;42.95;20.60;;;;;;;5.13;100.00;100627.53;4193875;28;20185;-76
2023/02/12 08:59:28;;;;;;;43.05;18.00;;;;;;;5.20;100.00;100633.50;4197021;28;20123;-76
2023/02/12 09:01:31;;;;;;;39.83;19.38;;;;;;;5.19;100.00;100629.13;4192637;28;20051;-76
2023/02/12 09:03:32;;;;;;;40.20;16.88;;;;;;;5.23;100.00;100630.19;4191365;28;20048;-76
2023/02/12 09:05:32;;;;;;;32.45;16.90;;;;;;;5.20;100.00;100628.81;4193174;28;20554;-76
2023/02/12 09:07:32;;;;;;;31.63;14.95;;;;;;;5.27;100.00;100643.03;4190310;28;20481;-76
2023/02/12 09:09:33;;;;;;;37.95;17.27;;;;;;;5.24;100.00;100637.31;4192591;28;20040;-76
2023/02/12 09:11:34;;;;;;;40.47;17.13;;;;;;;5.24;100.00;100632.63;4193115;28;20049;-76
2023/02/12 09:13:35;;;;;;;31.23;15.32;;;;;;;5.26;100.00;100637.81;4192720;28;20093;-76
2023/02/12 09:15:37;;;;;;;30.75;16.35;;;;;;;5.29;100.00;100637.25;4192438;28;20412;-75
2023/02/12 09:17:39;;;;;;;30.23;14.07;;;;;;;5.36;100.00;100646.78;4200586;28;20047;-76
2023/02/12 09:19:40;;;;;;;;;;;;;;;5.38;100.00;100642.91;4193121;28;20059;-76
2023/02/12 09:21:41;;;;;;;30.15;14.90;;;;;;;5.43;100.00;100646.44;4194236;28;19946;-76
2023/02/12 09:23:43;;;;;;;31.60;15.55;;;;;;;5.46;100.00;100640.38;4191708;28;20036;-76
2023/02/12 09:25:44;;;;;;;40.25;17.75;;;;;;;5.50;100.00;100643.34;4193059;28;20401;-76
2023/02/12 09:27:44;;;;;;;38.65;18.13;;;;;;;5.51;100.00;100651.28;4192276;28;20056;-76
2023/02/12 09:29:45;;;;;;;35.42;17.38;;;;;;;5.50;100.00;100651.56;4196038;28;20043;-76
2023/02/12 09:31:45;;;;;;;36.70;17.05;;;;;;;5.48;100.00;100651.06;4198382;28;20045;-76